Time;durP1;ratioP1;P1;durP2;ratioP2;P2;SDS_P1;SDS_P2;PMS_P1;PMS_P2;Temp;Humidity;BMP_temperature;BMP_pressure;BME280_temperature;BME280_humidity;BME280_pressure;Samples;Min_cycle;Max_cycle;Signal;HPM_P1;HPM_P2
2022/10/16 00:00:34;;;;;;;;;1.00;1.00;;;;;;;;5085963;27;45235;-73
2022/10/16 00:02:59;;;;;;;;;3.00;1.33;;;;;;;;5088729;27;45395;-72
2022/10/16 00:05:24;;;;;;;;;2.33;1.00;;;;;;;;5089125;27;45456;-72
2022/10/16 00:07:49;;;;;;;;;1.33;1.00;;;;;;;;5092211;27;45424;-73
2022/10/16 00:10:15;;;;;;;;;2.00;1.00;;;;;;;;5091511;27;45433;-73
2022/10/16 00:12:40;;;;;;;;;1.00;1.00;;;;;;;;5096108;27;45449;-73
2022/10/16 00:15:05;;;;;;;;;0.67;0.67;;;;;;;;5073071;27;47913;-73
2022/10/16 00:17:31;;;;;;;;;2.00;2.00;;;;;;;;5085916;27;45433;-73
2022/10/16 00:19:56;;;;;;;;;1.67;1.67;;;;;;;;5083191;27;45386;-73
2022/10/16 00:22:21;;;;;;;;;0.00;0.00;;;;;;;;5094282;27;45299;-73
2022/10/16 00:24:47;;;;;;;;;1.00;1.00;;;;;;;;5091184;27;45391;-73
2022/10/16 00:27:12;;;;;;;;;2.33;1.33;;;;;;;;5088275;27;45347;-73
2022/10/16 00:29:37;;;;;;;;;2.00;2.00;;;;;;;;5092200;27;45596;-72
2022/10/16 00:32:02;;;;;;;;;0.67;0.67;;;;;;;;5100388;27;45501;-73
2022/10/16 00:34:27;;;;;;;;;1.00;1.00;;;;;;;;5097396;27;46346;-73
2022/10/16 00:36:53;;;;;;;;;2.00;1.00;;;;;;;;5095131;27;45234;-73
2022/10/16 00:39:19;;;;;;;;;1.33;1.33;;;;;;;;5092975;27;45566;-73
2022/10/16 00:41:44;;;;;;;;;0.00;0.00;;;;;;;;5078320;27;46195;-73
2022/10/16 00:44:28;;;;;;;;;1.00;1.00;;;;;;;;5092364;27;45396;-73
2022/10/16 00:46:53;;;;;;;;;1.00;1.00;;;;;;;;5095998;27;45404;-73
2022/10/16 00:49:19;;;;;;;;;0.00;0.00;;;;;;;;5098897;27;45395;-72
2022/10/16 00:51:46;;;;;;;;;1.00;1.00;;;;;;;;5091329;27;46206;-73
2022/10/16 00:54:14;;;;;;;;;1.00;1.00;;;;;;;;5096914;27;45509;-72
2022/10/16 00:56:40;;;;;;;;;2.33;1.00;;;;;;;;5091751;27;45250;-73
2022/10/16 00:59:07;;;;;;;;;0.00;0.00;;;;;;;;5085822;27;45561;-73
2022/10/16 01:01:32;;;;;;;;;1.67;1.00;;;;;;;;5090742;27;45368;-73
2022/10/16 01:03:58;;;;;;;;;0.00;0.00;;;;;;;;5070762;27;45319;-73
2022/10/16 01:06:26;;;;;;;;;0.67;0.00;;;;;;;;5090847;27;45421;-73
2022/10/16 01:09:06;;;;;;;;;1.00;1.00;;;;;;;;5087819;27;45296;-73
2022/10/16 01:11:35;;;;;;;;;0.00;0.00;;;;;;;;5097285;27;45517;-73
2022/10/16 01:14:05;;;;;;;;;0.33;0.33;;;;;;;;5087470;27;45294;-73
2022/10/16 01:16:33;;;;;;;;;0.33;0.33;;;;;;;;5095898;27;45448;-73
2022/10/16 01:19:08;;;;;;;;;0.67;0.00;;;;;;;;5095799;27;45337;-73
2022/10/16 01:21:36;;;;;;;;;0.67;0.67;;;;;;;;5095286;27;45498;-73
2022/10/16 01:24:04;;;;;;;;;1.00;1.00;;;;;;;;5101128;27;45399;-73
2022/10/16 01:26:29;;;;;;;;;0.00;0.00;;;;;;;;5097740;27;45386;-73
2022/10/16 01:28:56;;;;;;;;;0.33;0.33;;;;;;;;5096360;27;45438;-73
2022/10/16 01:31:24;;;;;;;;;1.00;1.00;;;;;;;;5090455;27;45957;-73
2022/10/16 01:34:12;;;;;;;;;1.00;1.00;;;;;;;;5097982;27;45374;-73
2022/10/16 01:36:41;;;;;;;;;0.33;0.33;;;;;;;;5093219;27;45266;-73
2022/10/16 01:39:08;;;;;;;;;0.67;0.67;;;;;;;;5099393;27;45341;-73
2022/10/16 01:41:37;;;;;;;;;2.00;0.00;;;;;;;;5094264;27;45493;-73
2022/10/16 01:44:04;;;;;;;;;2.00;1.00;;;;;;;;5086940;27;46810;-73
2022/10/16 01:46:30;;;;;;;;;0.00;0.00;;;;;;;;5089965;27;45422;-73
2022/10/16 01:48:56;;;;;;;;;2.00;1.00;;;;;;;;5087072;27;45354;-73
2022/10/16 01:51:23;;;;;;;;;1.00;1.00;;;;;;;;5089680;27;45312;-73
2022/10/16 01:53:51;;;;;;;;;0.00;0.00;;;;;;;;5092959;27;45345;-73
2022/10/16 01:56:17;;;;;;;;;1.00;1.00;;;;;;;;5093165;27;45304;-73
2022/10/16 01:59:03;;;;;;;;;0.00;0.00;;;;;;;;5087537;27;45319;-72
2022/10/16 02:01:31;;;;;;;;;2.00;0.67;;;;;;;;5072353;27;46641;-73
2022/10/16 02:03:59;;;;;;;;;2.00;1.00;;;;;;;;5079441;27;46152;-73
2022/10/16 02:06:24;;;;;;;;;1.00;0.00;;;;;;;;5089950;27;45386;-73
2022/10/16 02:08:50;;;;;;;;;0.00;0.00;;;;;;;;5095763;27;45487;-73
2022/10/16 02:11:15;;;;;;;;;0.00;0.00;;;;;;;;5085423;27;45725;-73
2022/10/16 02:13:45;;;;;;;;;2.67;1.00;;;;;;;;5087179;27;45200;-73
2022/10/16 02:16:11;;;;;;;;;1.00;1.00;;;;;;;;5090659;27;45509;-73
2022/10/16 02:18:36;;;;;;;;;2.00;0.00;;;;;;;;5093764;27;45334;-73
2022/10/16 02:21:16;;;;;;;;;0.00;0.00;;;;;;;;5091608;27;45433;-73
2022/10/16 02:23:56;;;;;;;;;1.67;0.00;;;;;;;;5097159;27;45552;-73
2022/10/16 02:26:29;;;;;;;;;1.00;1.00;;;;;;;;5094541;27;45462;-73
2022/10/16 02:28:57;;;;;;;;;0.33;0.33;;;;;;;;5098862;27;45343;-73
2022/10/16 02:31:27;;;;;;;;;1.00;1.00;;;;;;;;5089459;27;45617;-73
2022/10/16 02:33:53;;;;;;;;;2.00;1.00;;;;;;;;5091594;27;45715;-73
2022/10/16 02:36:18;;;;;;;;;0.00;0.00;;;;;;;;5086348;27;45225;-73
2022/10/16 02:38:44;;;;;;;;;0.00;0.00;;;;;;;;5090855;27;45219;-72
2022/10/16 02:41:09;;;;;;;;;0.33;0.33;;;;;;;;5095286;27;45474;-73
2022/10/16 02:43:35;;;;;;;;;0.00;0.00;;;;;;;;5088674;27;46125;-73
2022/10/16 02:46:00;;;;;;;;;1.00;1.00;;;;;;;;5072922;27;45445;-73
2022/10/16 02:48:25;;;;;;;;;0.00;0.00;;;;;;;;5089461;27;45406;-72
2022/10/16 02:50:51;;;;;;;;;0.00;0.00;;;;;;;;5086720;27;45495;-73
2022/10/16 02:53:16;;;;;;;;;0.00;0.00;;;;;;;;5087679;27;45248;-73
2022/10/16 02:55:41;;;;;;;;;0.33;0.00;;;;;;;;5077466;27;45347;-73
2022/10/16 02:58:07;;;;;;;;;2.00;2.00;;;;;;;;5069725;27;45348;-73
2022/10/16 03:00:32;;;;;;;;;2.00;1.00;;;;;;;;5087069;27;45299;-73
2022/10/16 03:02:57;;;;;;;;;2.00;1.00;;;;;;;;5091247;27;46044;-73
2022/10/16 03:05:22;;;;;;;;;1.00;1.00;;;;;;;;5091199;27;45553;-73
2022/10/16 03:07:47;;;;;;;;;0.00;0.00;;;;;;;;5095930;27;45656;-73
2022/10/16 03:10:13;;;;;;;;;2.00;0.00;;;;;;;;5093168;27;45336;-73
2022/10/16 03:12:38;;;;;;;;;0.67;0.67;;;;;;;;5096952;27;45233;-73
2022/10/16 03:15:03;;;;;;;;;1.00;0.00;;;;;;;;5071050;27;45426;-73
2022/10/16 03:17:28;;;;;;;;;1.33;0.33;;;;;;;;5088087;27;45632;-73
2022/10/16 03:19:54;;;;;;;;;0.00;0.00;;;;;;;;5084323;27;45523;-73
2022/10/16 03:22:19;;;;;;;;;1.33;0.00;;;;;;;;5088608;27;45440;-73
2022/10/16 03:24:44;;;;;;;;;1.00;0.00;;;;;;;;5089407;27;45252;-73
2022/10/16 03:27:09;;;;;;;;;0.67;0.00;;;;;;;;5080599;27;45438;-72
2022/10/16 03:29:34;;;;;;;;;0.00;0.00;;;;;;;;5093372;27;45585;-73
2022/10/16 03:32:00;;;;;;;;;0.00;0.00;;;;;;;;5091683;27;46180;-73
2022/10/16 03:34:25;;;;;;;;;1.00;1.00;;;;;;;;5095841;27;45362;-72
2022/10/16 03:36:50;;;;;;;;;0.00;0.00;;;;;;;;5091617;27;45413;-72
2022/10/16 03:39:16;;;;;;;;;0.00;0.00;;;;;;;;5088471;27;45513;-72
2022/10/16 03:41:41;;;;;;;;;0.00;0.00;;;;;;;;5093006;27;45379;-73
2022/10/16 03:44:06;;;;;;;;;0.00;0.00;;;;;;;;5093857;27;45561;-72
2022/10/16 03:46:31;;;;;;;;;0.33;0.00;;;;;;;;5092600;27;45189;-72
2022/10/16 03:48:56;;;;;;;;;0.00;0.00;;;;;;;;5095627;27;44982;-73
2022/10/16 03:51:22;;;;;;;;;1.00;0.00;;;;;;;;5093524;27;45295;-72
2022/10/16 03:53:47;;;;;;;;;0.00;0.00;;;;;;;;5085634;27;45421;-73
2022/10/16 03:56:12;;;;;;;;;0.00;0.00;;;;;;;;5085799;27;45381;-72
2022/10/16 03:58:37;;;;;;;;;0.33;0.00;;;;;;;;5083547;27;45275;-72
2022/10/16 04:01:03;;;;;;;;;1.00;0.00;;;;;;;;5083398;27;46236;-72
2022/10/16 04:03:28;;;;;;;;;1.00;0.67;;;;;;;;5085808;27;45251;-72
2022/10/16 04:05:54;;;;;;;;;0.00;0.00;;;;;;;;5090355;27;45410;-73
2022/10/16 04:08:19;;;;;;;;;0.00;0.00;;;;;;;;5083507;27;45244;-73
2022/10/16 04:10:44;;;;;;;;;0.00;0.00;;;;;;;;5087671;27;45460;-72
2022/10/16 04:13:09;;;;;;;;;0.00;0.00;;;;;;;;5083389;27;45370;-72
2022/10/16 04:15:35;;;;;;;;;0.00;0.00;;;;;;;;5092890;27;45441;-72
2022/10/16 04:18:00;;;;;;;;;0.00;0.00;;;;;;;;5083787;27;45303;-72
2022/10/16 04:20:25;;;;;;;;;0.33;0.33;;;;;;;;5091821;27;45449;-72
2022/10/16 04:22:50;;;;;;;;;1.67;0.33;;;;;;;;5078983;27;45356;-72
2022/10/16 04:25:15;;;;;;;;;0.00;0.00;;;;;;;;5091037;27;45429;-72
2022/10/16 04:27:41;;;;;;;;;0.00;0.00;;;;;;;;5092515;27;45209;-72
2022/10/16 04:30:06;;;;;;;;;0.67;0.00;;;;;;;;5082219;27;46136;-72
2022/10/16 04:32:31;;;;;;;;;0.00;0.00;;;;;;;;5087802;27;45316;-72
2022/10/16 04:34:57;;;;;;;;;0.00;0.00;;;;;;;;5091805;27;45502;-72
2022/10/16 04:37:25;;;;;;;;;0.00;0.00;;;;;;;;5079196;27;45638;-72
2022/10/16 04:39:51;;;;;;;;;0.00;0.00;;;;;;;;5066834;28;47127;-72
2022/10/16 04:42:16;;;;;;;;;1.00;0.00;;;;;;;;5088265;27;45481;-73
2022/10/16 04:44:41;;;;;;;;;0.00;0.00;;;;;;;;5068826;28;45528;-72
2022/10/16 04:47:07;;;;;;;;;1.67;0.00;;;;;;;;5087505;27;45418;-72
2022/10/16 04:49:32;;;;;;;;;1.00;0.00;;;;;;;;5077330;27;48181;-72
2022/10/16 04:51:57;;;;;;;;;2.00;0.00;;;;;;;;5089370;27;45204;-72
2022/10/16 04:54:22;;;;;;;;;0.00;0.00;;;;;;;;5077797;27;45264;-72
2022/10/16 04:56:50;;;;;;;;;0.00;0.00;;;;;;;;5093482;27;45402;-73
2022/10/16 04:59:15;;;;;;;;;0.00;0.00;;;;;;;;5093928;27;45378;-72
2022/10/16 05:01:40;;;;;;;;;0.00;0.00;;;;;;;;5085865;27;45431;-72
2022/10/16 05:04:06;;;;;;;;;1.00;0.00;;;;;;;;5083754;27;45425;-72
2022/10/16 05:06:31;;;;;;;;;0.00;0.00;;;;;;;;5083511;27;45827;-73
2022/10/16 05:08:56;;;;;;;;;0.00;0.00;;;;;;;;5063599;27;46532;-72
2022/10/16 05:11:21;;;;;;;;;0.00;0.00;;;;;;;;5088812;27;45431;-72
2022/10/16 05:13:46;;;;;;;;;0.33;0.00;;;;;;;;5099363;27;45307;-73
2022/10/16 05:16:12;;;;;;;;;2.00;1.00;;;;;;;;5090668;27;45322;-72
2022/10/16 05:18:37;;;;;;;;;0.00;0.00;;;;;;;;5088418;27;45245;-72
2022/10/16 05:21:02;;;;;;;;;0.00;0.00;;;;;;;;5088298;27;45438;-72
2022/10/16 05:23:27;;;;;;;;;2.33;0.00;;;;;;;;5071354;27;45451;-72
2022/10/16 05:25:57;;;;;;;;;1.67;1.00;;;;;;;;5090719;27;45314;-72
2022/10/16 05:28:23;;;;;;;;;0.00;0.00;;;;;;;;5087364;27;45246;-72
2022/10/16 05:30:48;;;;;;;;;0.00;0.00;;;;;;;;5091087;27;45323;-72
2022/10/16 05:33:13;;;;;;;;;1.67;0.33;;;;;;;;5082329;27;45338;-72
2022/10/16 05:35:39;;;;;;;;;0.00;0.00;;;;;;;;5091663;27;45399;-72
2022/10/16 05:38:04;;;;;;;;;0.00;0.00;;;;;;;;5094984;27;45363;-72
2022/10/16 05:40:29;;;;;;;;;0.00;0.00;;;;;;;;5086088;27;45271;-72
2022/10/16 05:42:55;;;;;;;;;1.00;1.00;;;;;;;;5092899;27;45275;-72
2022/10/16 05:45:20;;;;;;;;;0.00;0.00;;;;;;;;5088962;27;45470;-73
2022/10/16 05:47:45;;;;;;;;;0.00;0.00;;;;;;;;5092154;27;46330;-74
2022/10/16 05:50:10;;;;;;;;;0.00;0.00;;;;;;;;5089122;27;45428;-73
2022/10/16 05:52:35;;;;;;;;;0.67;0.67;;;;;;;;5086904;27;45344;-74
2022/10/16 05:55:01;;;;;;;;;0.00;0.00;;;;;;;;5087597;27;45424;-73
2022/10/16 05:57:26;;;;;;;;;0.67;0.67;;;;;;;;5088602;27;45313;-73
2022/10/16 05:59:51;;;;;;;;;3.00;0.00;;;;;;;;5076481;27;45486;-74
2022/10/16 06:02:16;;;;;;;;;0.00;0.00;;;;;;;;5088965;27;45402;-73
2022/10/16 06:04:41;;;;;;;;;0.33;0.33;;;;;;;;5075909;28;45817;-73
2022/10/16 06:07:07;;;;;;;;;0.00;0.00;;;;;;;;5094820;27;46100;-73
2022/10/16 06:09:32;;;;;;;;;1.33;0.00;;;;;;;;5092416;27;45845;-73
2022/10/16 06:11:58;;;;;;;;;0.00;0.00;;;;;;;;5096594;27;45369;-73
2022/10/16 06:14:23;;;;;;;;;0.00;0.00;;;;;;;;5095351;27;45450;-73
2022/10/16 06:16:48;;;;;;;;;0.00;0.00;;;;;;;;5087252;27;45312;-73
2022/10/16 06:19:15;;;;;;;;;1.00;0.00;;;;;;;;5075784;27;45394;-73
2022/10/16 06:21:40;;;;;;;;;0.00;0.00;;;;;;;;5090699;27;45412;-73
2022/10/16 06:24:05;;;;;;;;;0.00;0.00;;;;;;;;5074126;27;45877;-72
2022/10/16 06:26:31;;;;;;;;;2.67;0.00;;;;;;;;5077312;27;46903;-73
2022/10/16 06:28:57;;;;;;;;;0.00;0.00;;;;;;;;5094151;27;45240;-73
2022/10/16 06:31:22;;;;;;;;;0.00;0.00;;;;;;;;5088764;27;45266;-73
2022/10/16 06:33:50;;;;;;;;;0.00;0.00;;;;;;;;5092485;27;45418;-73
2022/10/16 06:36:16;;;;;;;;;0.00;0.00;;;;;;;;5091703;27;46669;-73
2022/10/16 06:38:42;;;;;;;;;1.00;1.00;;;;;;;;5094424;27;44896;-73
2022/10/16 06:41:08;;;;;;;;;1.00;0.67;;;;;;;;5088537;27;45328;-73
2022/10/16 06:43:35;;;;;;;;;1.00;1.00;;;;;;;;5079203;27;46202;-73
2022/10/16 06:46:01;;;;;;;;;1.33;1.00;;;;;;;;5092101;27;45314;-73
2022/10/16 06:48:26;;;;;;;;;0.67;0.67;;;;;;;;5100275;27;45225;-73
2022/10/16 06:51:02;;;;;;;;;1.00;1.00;;;;;;;;5088344;27;45202;-73
2022/10/16 06:53:30;;;;;;;;;1.00;1.00;;;;;;;;5079956;27;45860;-73
2022/10/16 06:55:55;;;;;;;;;1.00;1.00;;;;;;;;5086734;27;46118;-73
2022/10/16 06:58:20;;;;;;;;;0.00;0.00;;;;;;;;5091386;27;45470;-73
2022/10/16 07:00:46;;;;;;;;;1.00;1.00;;;;;;;;5092785;27;45377;-73
2022/10/16 07:03:11;;;;;;;;;2.33;1.00;;;;;;;;5082492;27;45530;-73
2022/10/16 07:05:40;;;;;;;;;3.00;2.00;;;;;;;;5082643;27;45608;-73
2022/10/16 07:08:05;;;;;;;;;0.33;0.33;;;;;;;;5092321;27;44703;-73
2022/10/16 07:10:31;;;;;;;;;1.00;1.00;;;;;;;;5092550;27;45522;-73
2022/10/16 07:12:56;;;;;;;;;2.00;1.00;;;;;;;;5071415;27;46921;-73
2022/10/16 07:15:21;;;;;;;;;1.00;1.00;;;;;;;;5076058;27;45891;-73
2022/10/16 07:17:46;;;;;;;;;0.67;0.67;;;;;;;;5092169;27;45217;-74
2022/10/16 07:20:11;;;;;;;;;0.00;0.00;;;;;;;;5066185;27;45370;-75
2022/10/16 07:22:37;;;;;;;;;1.00;1.00;;;;;;;;5086784;27;45383;-75
2022/10/16 07:25:02;;;;;;;;;1.00;1.00;;;;;;;;5084925;27;45110;-75
2022/10/16 07:27:28;;;;;;;;;3.00;0.33;;;;;;;;5089752;27;45337;-75
2022/10/16 07:29:53;;;;;;;;;1.00;1.00;;;;;;;;5087971;27;45459;-75
2022/10/16 07:32:18;;;;;;;;;1.00;1.00;;;;;;;;5099452;27;45499;-75
2022/10/16 07:34:43;;;;;;;;;0.33;0.33;;;;;;;;5070637;28;47057;-75
2022/10/16 07:37:09;;;;;;;;;1.67;1.00;;;;;;;;5089290;27;45386;-75
2022/10/16 07:39:34;;;;;;;;;1.67;1.00;;;;;;;;5098290;27;45191;-73
2022/10/16 07:41:59;;;;;;;;;0.33;0.00;;;;;;;;5089633;27;45228;-75
2022/10/16 07:44:24;;;;;;;;;1.00;1.00;;;;;;;;5086543;27;47086;-75
2022/10/16 07:46:49;;;;;;;;;1.67;0.67;;;;;;;;5076536;27;45265;-75
2022/10/16 07:49:14;;;;;;;;;0.00;0.00;;;;;;;;5090847;27;45191;-73
2022/10/16 07:51:40;;;;;;;;;1.00;1.00;;;;;;;;5085351;27;45541;-77
2022/10/16 07:54:05;;;;;;;;;2.00;2.00;;;;;;;;5091262;27;46998;-76
2022/10/16 07:56:32;;;;;;;;;5.00;4.00;;;;;;;;5075313;27;45323;-75
2022/10/16 07:58:57;;;;;;;;;2.00;2.00;;;;;;;;5094122;27;45265;-73
2022/10/16 08:01:22;;;;;;;;;1.00;1.00;;;;;;;;5083586;27;45397;-72
2022/10/16 08:03:49;;;;;;;;;1.00;1.00;;;;;;;;5097282;27;45543;-72
2022/10/16 08:06:14;;;;;;;;;0.67;0.67;;;;;;;;5090932;27;45421;-72
2022/10/16 08:08:39;;;;;;;;;1.00;1.00;;;;;;;;5081291;27;45297;-72
2022/10/16 08:11:05;;;;;;;;;1.00;1.00;;;;;;;;5093712;27;45275;-72
2022/10/16 08:13:30;;;;;;;;;1.00;1.00;;;;;;;;5094696;27;45335;-72
2022/10/16 08:15:55;;;;;;;;;1.00;1.00;;;;;;;;5086693;27;45385;-72
2022/10/16 08:18:21;;;;;;;;;1.00;1.00;;;;;;;;5086060;27;45338;-72
2022/10/16 08:20:46;;;;;;;;;0.00;0.00;;;;;;;;5093129;27;45435;-72
2022/10/16 08:23:13;;;;;;;;;1.33;0.33;;;;;;;;5083710;27;46150;-72
2022/10/16 08:25:38;;;;;;;;;1.00;1.00;;;;;;;;5086150;27;45386;-71
2022/10/16 08:28:06;;;;;;;;;1.00;1.00;;;;;;;;5096897;27;45276;-72
2022/10/16 08:30:31;;;;;;;;;1.00;0.00;;;;;;;;5086314;27;45409;-72
2022/10/16 08:32:57;;;;;;;;;1.00;1.00;;;;;;;;5087917;27;46153;-72
2022/10/16 08:35:23;;;;;;;;;0.00;0.00;;;;;;;;5088341;27;45453;-72
2022/10/16 08:37:48;;;;;;;;;2.00;2.00;;;;;;;;5089701;27;45654;-71
2022/10/16 08:40:25;;;;;;;;;2.00;2.00;;;;;;;;5088545;27;45304;-71
2022/10/16 08:43:05;;;;;;;;;1.33;0.67;;;;;;;;5074547;27;46843;-71
2022/10/16 08:45:39;;;;;;;;;1.00;1.00;;;;;;;;5090412;27;45516;-74
2022/10/16 08:48:16;;;;;;;;;1.00;1.00;;;;;;;;5095992;27;45401;-73
2022/10/16 08:50:41;;;;;;;;;0.00;0.00;;;;;;;;5091502;27;46919;-72
2022/10/16 08:53:10;;;;;;;;;2.00;2.00;;;;;;;;5081611;27;45942;-72
2022/10/16 08:55:46;;;;;;;;;1.00;1.00;;;;;;;;5095466;27;45412;-72
2022/10/16 08:58:13;;;;;;;;;2.00;1.00;;;;;;;;5083041;27;45291;-72
2022/10/16 09:00:39;;;;;;;;;1.00;1.00;;;;;;;;5091148;27;45475;-72
2022/10/16 09:03:13;;;;;;;;;3.00;1.00;;;;;;;;5079105;27;47069;-72
2022/10/16 09:05:51;;;;;;;;;2.00;2.00;;;;;;;;5074959;28;45650;-72
2022/10/16 09:08:19;;;;;;;;;2.67;2.00;;;;;;;;5095529;27;45316;-72
2022/10/16 09:11:07;;;;;;;;;3.67;1.67;;;;;;;;5095167;27;45359;-73
2022/10/16 09:13:51;;;;;;;;;2.33;2.00;;;;;;;;5077693;27;47461;-72
2022/10/16 09:16:32;;;;;;;;;0.67;0.67;;;;;;;;5092809;27;45409;-72
2022/10/16 09:19:11;;;;;;;;;2.00;2.00;;;;;;;;5083024;27;45475;-72
2022/10/16 09:21:40;;;;;;;;;1.67;1.67;;;;;;;;5092522;27;45422;-72
2022/10/16 09:24:15;;;;;;;;;3.33;1.67;;;;;;;;5086461;27;46632;-72
2022/10/16 09:26:40;;;;;;;;;3.00;3.00;;;;;;;;5098179;27;45403;-71
2022/10/16 09:29:06;;;;;;;;;4.00;4.00;;;;;;;;5090594;27;45322;-71
2022/10/16 09:31:31;;;;;;;;;2.33;2.33;;;;;;;;5091396;27;45331;-72
2022/10/16 09:34:00;;;;;;;;;2.67;2.67;;;;;;;;5094632;27;45493;-73
2022/10/16 09:36:26;;;;;;;;;1.00;1.00;;;;;;;;5092283;27;45283;-73
2022/10/16 09:39:01;;;;;;;;;1.67;1.67;;;;;;;;5079985;27;45259;-73
2022/10/16 09:41:27;;;;;;;;;2.33;2.33;;;;;;;;5092685;27;45387;-74
2022/10/16 09:43:55;;;;;;;;;5.00;5.00;;;;;;;;5098306;27;46798;-73
2022/10/16 09:46:28;;;;;;;;;3.00;3.00;;;;;;;;5095113;27;45429;-72
2022/10/16 09:48:55;;;;;;;;;3.00;3.00;;;;;;;;5097352;27;45334;-72
2022/10/16 09:51:28;;;;;;;;;1.67;1.67;;;;;;;;5091306;27;45632;-71
2022/10/16 09:53:55;;;;;;;;;1.00;1.00;;;;;;;;5100919;27;46217;-72
2022/10/16 09:56:22;;;;;;;;;3.00;3.00;;;;;;;;5085975;27;45482;-71
2022/10/16 09:58:57;;;;;;;;;3.33;1.67;;;;;;;;5086660;27;45295;-71
2022/10/16 10:01:26;;;;;;;;;2.00;2.00;;;;;;;;5091619;27;45654;-71
2022/10/16 10:04:00;;;;;;;;;2.67;2.33;;;;;;;;5089854;27;45277;-72
2022/10/16 10:06:27;;;;;;;;;3.67;2.67;;;;;;;;5090111;27;45330;-72
2022/10/16 10:09:15;;;;;;;;;5.00;5.00;;;;;;;;5087261;27;45462;-72
2022/10/16 10:11:51;;;;;;;;;3.00;3.00;;;;;;;;5059196;28;45731;-72
2022/10/16 10:14:22;;;;;;;;;2.33;2.33;;;;;;;;5076216;27;47378;-72
2022/10/16 10:16:48;;;;;;;;;3.67;3.67;;;;;;;;5088737;27;45462;-72
2022/10/16 10:19:17;;;;;;;;;4.33;3.67;;;;;;;;5092909;27;45284;-72
2022/10/16 10:21:42;;;;;;;;;3.00;3.00;;;;;;;;5086448;27;45339;-72
2022/10/16 10:24:15;;;;;;;;;4.00;4.00;;;;;;;;5089131;27;46400;-72
2022/10/16 10:27:00;;;;;;;;;4.00;4.00;;;;;;;;5098224;27;45324;-72
2022/10/16 10:29:35;;;;;;;;;3.00;3.00;;;;;;;;5094847;27;45531;-72
2022/10/16 10:32:36;;;;;;;;;3.00;3.00;;;;;;;;5092837;27;45592;-73
2022/10/16 10:35:13;;;;;;;;;4.67;3.00;;;;;;;;4983252;28;45471;-73
2022/10/16 10:37:48;;;;;;;;;6.00;4.67;;;;;;;;5085008;27;45300;-73
2022/10/16 10:40:16;;;;;;;;;5.33;4.00;;;;;;;;5094371;27;48126;-71
2022/10/16 10:42:50;;;;;;;;;4.33;4.00;;;;;;;;5095595;27;45537;-71
2022/10/16 10:45:35;;;;;;;;;2.67;2.67;;;;;;;;5086829;27;45568;-70
2022/10/16 10:48:17;;;;;;;;;4.67;4.67;;;;;;;;5077291;27;45284;-71
2022/10/16 10:50:45;;;;;;;;;4.67;4.67;;;;;;;;5086998;27;45489;-71
2022/10/16 10:53:21;;;;;;;;;4.00;3.67;;;;;;;;5087224;27;45291;-71
2022/10/16 10:56:05;;;;;;;;;6.33;4.00;;;;;;;;5071193;28;47624;-71
2022/10/16 10:58:39;;;;;;;;;4.67;4.67;;;;;;;;5097289;27;45529;-72
2022/10/16 11:01:15;;;;;;;;;4.00;4.00;;;;;;;;5084960;27;45241;-71
2022/10/16 11:03:58;;;;;;;;;4.00;3.33;;;;;;;;5082306;27;45478;-72
2022/10/16 11:06:31;;;;;;;;;5.00;4.33;;;;;;;;5096720;27;46355;-72
2022/10/16 11:08:56;;;;;;;;;3.00;3.00;;;;;;;;5084692;27;46532;-71
2022/10/16 11:11:27;;;;;;;;;2.67;2.67;;;;;;;;5087364;27;45733;-72
2022/10/16 11:14:06;;;;;;;;;3.50;2.75;;;;;;;;5092767;27;45466;-72
2022/10/16 11:16:42;;;;;;;;;2.50;2.50;;;;;;;;5087355;27;45628;-71
2022/10/16 11:19:07;;;;;;;;;2.75;2.00;;;;;;;;5089042;27;45417;-72
2022/10/16 11:21:38;;;;;;;;;4.00;4.00;;;;;;;;5085258;27;45386;-72
2022/10/16 11:24:08;;;;;;;;;2.25;0.75;;;;;;;;5090091;27;45292;-71
2022/10/16 11:26:35;;;;;;;;;3.00;3.00;;;;;;;;5084601;27;48195;-72
2022/10/16 11:29:01;;;;;;;;;2.25;1.75;;;;;;;;5090219;27;45369;-75
2022/10/16 11:31:32;;;;;;;;;2.50;2.50;;;;;;;;5087913;27;45316;-74
2022/10/16 11:34:11;;;;;;;;;1.50;1.25;;;;;;;;5091063;27;45426;-72
2022/10/16 11:36:37;;;;;;;;;0.00;0.00;;;;;;;;5082966;27;46135;-71
2022/10/16 11:39:21;;;;;;;;;0.00;0.00;;;;;;;;5082096;27;45369;-71
2022/10/16 11:41:54;;;;;;;;;0.75;0.75;;;;;;;;5084110;27;45340;-71
2022/10/16 11:44:23;;;;;;;;;1.00;1.00;;;;;;;;5075511;27;47647;-71
2022/10/16 11:46:58;;;;;;;;;1.00;1.00;;;;;;;;5073230;27;47305;-72
2022/10/16 11:49:25;;;;;;;;;2.75;2.75;;;;;;;;5089594;27;45817;-71
2022/10/16 11:52:03;;;;;;;;;1.50;1.50;;;;;;;;5097484;27;45457;-70
2022/10/16 11:54:41;;;;;;;;;1.25;1.00;;;;;;;;5094804;27;45325;-71
2022/10/16 11:57:14;;;;;;;;;1.00;1.00;;;;;;;;5086140;27;45387;-72
2022/10/16 11:59:39;;;;;;;;;2.25;1.50;;;;;;;;5090066;27;45397;-72
2022/10/16 12:02:23;;;;;;;;;0.75;0.75;;;;;;;;5084156;27;45281;-72
2022/10/16 12:04:58;;;;;;;;;0.75;0.75;;;;;;;;5073157;28;46229;-69
2022/10/16 12:07:27;;;;;;;;;0.00;0.00;;;;;;;;5095149;27;46291;-69
2022/10/16 12:09:52;;;;;;;;;0.25;0.25;;;;;;;;5093886;27;45325;-69
2022/10/16 12:12:36;;;;;;;;;2.00;1.00;;;;;;;;5087482;27;45383;-69
2022/10/16 12:15:20;;;;;;;;;0.00;0.00;;;;;;;;5082724;27;45497;-68
2022/10/16 12:17:46;;;;;;;;;0.75;0.00;;;;;;;;5084596;27;46158;-69
2022/10/16 12:20:11;;;;;;;;;1.00;1.00;;;;;;;;5088294;27;45469;-70
2022/10/16 12:22:36;;;;;;;;;2.00;1.00;;;;;;;;5083235;27;45609;-68
2022/10/16 12:25:02;;;;;;;;;0.75;0.75;;;;;;;;5097270;27;45421;-68
2022/10/16 12:27:31;;;;;;;;;0.25;0.25;;;;;;;;5090091;27;46122;-68
2022/10/16 12:29:58;;;;;;;;;0.25;0.25;;;;;;;;5094246;27;45333;-70
2022/10/16 12:32:33;;;;;;;;;1.75;0.75;;;;;;;;5082944;27;45524;-68
2022/10/16 12:35:00;;;;;;;;;1.00;1.00;;;;;;;;5099048;27;45417;-70
2022/10/16 12:37:31;;;;;;;;;2.00;1.00;;;;;;;;5093453;27;45418;-70
2022/10/16 12:39:56;;;;;;;;;2.00;1.00;;;;;;;;5077431;28;47075;-70
2022/10/16 12:42:24;;;;;;;;;1.00;1.00;;;;;;;;5098308;27;45232;-68
2022/10/16 12:44:49;;;;;;;;;1.00;1.00;;;;;;;;5076148;28;46185;-68
2022/10/16 12:47:24;;;;;;;;;3.50;2.00;;;;;;;;5097987;27;45363;-68
2022/10/16 12:49:53;;;;;;;;;1.75;1.75;;;;;;;;5078304;28;45808;-71
2022/10/16 12:52:34;;;;;;;;;194.67;179.00;;;;;;;;5092160;27;45279;-71
2022/10/16 12:55:00;;;;;;;;;20.33;20.33;;;;;;;;5085727;27;45425;-71
2022/10/16 12:57:25;;;;;;;;;3.50;3.50;;;;;;;;5089696;27;46314;-68
2022/10/16 12:59:50;;;;;;;;;0.50;0.50;;;;;;;;5088107;27;45641;-69
2022/10/16 13:02:28;;;;;;;;;5.50;4.00;;;;;;;;5090162;27;45508;-69
2022/10/16 13:05:02;;;;;;;;;3.25;3.25;;;;;;;;5097066;27;45594;-71
2022/10/16 13:07:39;;;;;;;;;1.50;1.50;;;;;;;;5092023;27;46008;-71
2022/10/16 13:10:14;;;;;;;;;0.75;0.75;;;;;;;;5091737;27;45449;-71
2022/10/16 13:12:52;;;;;;;;;0.00;0.00;;;;;;;;5091353;27;45327;-73
2022/10/16 13:15:23;;;;;;;;;1.25;1.25;;;;;;;;5094403;27;45402;-70
2022/10/16 13:18:07;;;;;;;;;0.75;0.75;;;;;;;;5088052;27;45359;-73
2022/10/16 13:20:41;;;;;;;;;1.00;1.00;;;;;;;;5094501;27;45288;-69
2022/10/16 13:23:29;;;;;;;;;62.75;50.25;;;;;;;;5087890;27;45280;-70
2022/10/16 13:26:06;;;;;;;;;2.33;2.33;;;;;;;;5093244;27;45532;-72
2022/10/16 13:28:32;;;;;;;;;1.00;1.00;;;;;;;;5095083;27;45320;-72
2022/10/16 13:30:59;;;;;;;;;1.75;1.75;;;;;;;;5089118;27;45351;-72
2022/10/16 13:33:36;;;;;;;;;64.75;52.25;;;;;;;;5082630;27;45307;-73
2022/10/16 13:36:02;;;;;;;;;54.00;43.25;;;;;;;;5093801;27;45284;-73
2022/10/16 13:38:28;;;;;;;;;43.33;37.00;;;;;;;;5088151;27;45402;-71
2022/10/16 13:40:55;;;;;;;;;3.75;3.75;;;;;;;;5091146;27;45476;-70
2022/10/16 13:43:26;;;;;;;;;4.00;3.25;;;;;;;;5085261;27;45256;-72
2022/10/16 13:45:58;;;;;;;;;284.50;266.50;;;;;;;;5087946;27;45508;-72
2022/10/16 13:48:23;;;;;;;;;14.00;13.33;;;;;;;;5100605;27;48120;-73
2022/10/16 13:50:59;;;;;;;;;28.33;25.33;;;;;;;;5095528;27;45316;-72
2022/10/16 13:53:24;;;;;;;;;4.50;4.50;;;;;;;;5080894;27;45261;-70
2022/10/16 13:55:49;;;;;;;;;5.00;4.00;;;;;;;;5085817;27;45417;-70
2022/10/16 13:58:14;;;;;;;;;8.00;8.00;;;;;;;;5092385;27;45383;-70
2022/10/16 14:00:41;;;;;;;;;4.75;3.50;;;;;;;;5090117;27;45683;-73
2022/10/16 14:03:14;;;;;;;;;4.50;4.50;;;;;;;;5088419;27;45315;-73
2022/10/16 14:05:51;;;;;;;;;36.00;31.33;;;;;;;;5092399;27;45416;-72
2022/10/16 14:08:16;;;;;;;;;9.25;9.25;;;;;;;;5084425;27;45401;-72
2022/10/16 14:10:42;;;;;;;;;5.00;4.75;;;;;;;;5085735;27;45232;-72
2022/10/16 14:13:08;;;;;;;;;4.00;3.00;;;;;;;;5074014;27;45383;-72
2022/10/16 14:15:35;;;;;;;;;2.75;2.75;;;;;;;;5085762;27;45438;-73
2022/10/16 14:18:01;;;;;;;;;2.50;2.50;;;;;;;;5082426;27;45701;-73
2022/10/16 14:20:28;;;;;;;;;5.00;3.25;;;;;;;;5074482;27;45491;-73
2022/10/16 14:23:01;;;;;;;;;4.00;3.00;;;;;;;;5087220;27;45453;-73
2022/10/16 14:25:27;;;;;;;;;2.50;2.50;;;;;;;;5084591;27;45267;-72
2022/10/16 14:27:59;;;;;;;;;5.00;5.00;;;;;;;;5088735;27;46148;-72
2022/10/16 14:30:25;;;;;;;;;2.00;2.00;;;;;;;;5067224;27;46053;-71
2022/10/16 14:32:58;;;;;;;;;3.75;3.75;;;;;;;;5089073;27;45280;-73
2022/10/16 14:35:26;;;;;;;;;3.75;3.00;;;;;;;;5089860;27;45544;-73
2022/10/16 14:37:52;;;;;;;;;4.00;4.00;;;;;;;;5089459;27;45267;-73
2022/10/16 14:40:18;;;;;;;;;2.00;2.00;;;;;;;;5086973;27;45679;-73
2022/10/16 14:42:43;;;;;;;;;7.25;5.75;;;;;;;;5089568;27;45498;-73
2022/10/16 14:45:10;;;;;;;;;3.25;3.25;;;;;;;;5088621;27;45530;-73
2022/10/16 14:47:37;;;;;;;;;3.00;3.00;;;;;;;;5077120;27;47754;-70
2022/10/16 14:50:02;;;;;;;;;2.50;2.50;;;;;;;;5097505;27;45442;-72